createdAt,value
2023-02-24T00:00:26.550Z,75.40
2023-02-24T00:02:58.485Z,70.25
2023-02-24T00:06:10.868Z,80.55
2023-02-24T00:08:54.098Z,73.13
2023-02-24T00:11:31.094Z,71.57
2023-02-24T00:14:12.942Z,77.47
2023-02-24T00:17:19.185Z,76.13
2023-02-24T00:19:57.813Z,76.68
2023-02-24T00:22:24.836Z,81.57
2023-02-24T00:25:07.882Z,78.93
2023-02-24T00:27:43.501Z,83.80
2023-02-24T00:30:14.909Z,81.93
2023-02-24T00:32:41.914Z,79.50
2023-02-24T00:35:12.530Z,74.10
2023-02-24T00:37:51.575Z,64.82
2023-02-24T00:40:23.842Z,68.95
2023-02-24T00:42:57.532Z,68.03
2023-02-24T00:48:35.855Z,59.53
2023-02-24T00:53:56.250Z,73.93
2023-02-24T00:56:35.451Z,72.10
2023-02-24T00:59:09.957Z,72.40
2023-02-24T01:01:56.027Z,69.85
2023-02-24T01:04:51.092Z,74.68
2023-02-24T01:07:19.884Z,71.95
2023-02-24T01:09:56.281Z,68.97
2023-02-24T01:12:55.813Z,69.30
2023-02-24T01:15:36.901Z,76.18
2023-02-24T01:18:27.721Z,74.32
2023-02-24T01:21:19.740Z,69.93
2023-02-24T01:24:00.232Z,69.55
2023-02-24T01:26:38.114Z,70.95
2023-02-24T01:29:09.934Z,71.43
2023-02-24T01:31:38.848Z,70.78
2023-02-24T01:34:06.195Z,75.60
2023-02-24T01:36:48.199Z,71.13
2023-02-24T01:39:15.011Z,75.80
2023-02-24T01:41:47.216Z,74.75
2023-02-24T01:44:20.000Z,70.93
2023-02-24T01:47:33.239Z,74.50
2023-02-24T01:50:22.953Z,75.38
2023-02-24T01:52:59.352Z,71.00
2023-02-24T01:55:41.138Z,76.47
2023-02-24T01:58:29.903Z,73.88
2023-02-24T02:00:58.073Z,69.20
2023-02-24T02:03:36.452Z,75.00
2023-02-24T02:06:17.562Z,76.43
2023-02-24T02:08:51.158Z,73.90
2023-02-24T02:11:27.629Z,69.53
2023-02-24T02:14:09.117Z,72.57
2023-02-24T02:16:43.093Z,70.25
2023-02-24T02:19:41.067Z,64.63
2023-02-24T02:22:42.171Z,51.40
2023-02-24T02:25:26.879Z,51.78
2023-02-24T02:28:17.670Z,62.38
2023-02-24T02:31:18.034Z,66.18
2023-02-24T02:34:19.518Z,54.25
2023-02-24T02:37:22.977Z,70.40
2023-02-24T02:40:20.041Z,52.20
2023-02-24T02:43:09.019Z,63.97
2023-02-24T02:45:58.173Z,68.80
2023-02-24T02:48:58.566Z,69.65
2023-02-24T02:51:52.274Z,62.08
2023-02-24T02:54:52.230Z,65.93
2023-02-24T02:57:31.669Z,50.22
2023-02-24T03:00:38.714Z,67.13
2023-02-24T03:03:44.181Z,62.90
2023-02-24T03:06:42.531Z,66.70
2023-02-24T03:09:27.677Z,60.80
2023-02-24T03:12:11.643Z,64.13
2023-02-24T03:14:57.685Z,63.20
2023-02-24T03:17:33.198Z,57.95
2023-02-24T03:20:33.744Z,64.22
2023-02-24T03:26:21.860Z,58.92
2023-02-24T03:29:10.295Z,62.88
2023-02-24T03:32:15.322Z,70.15
2023-02-24T03:35:12.600Z,71.13
2023-02-24T03:37:50.999Z,68.50
2023-02-24T03:40:28.901Z,64.68
2023-02-24T03:43:23.618Z,63.47
2023-02-24T03:45:50.832Z,72.15
2023-02-24T03:48:36.093Z,65.68
2023-02-24T03:51:06.166Z,67.28
2023-02-24T03:53:34.066Z,69.57
2023-02-24T03:56:47.767Z,71.45
2023-02-24T03:59:55.039Z,70.32
2023-02-24T04:02:40.492Z,71.80
2023-02-24T04:05:33.882Z,73.00
2023-02-24T04:08:27.576Z,70.97
2023-02-24T04:11:39.772Z,75.63
2023-02-24T04:14:28.358Z,80.53
2023-02-24T04:17:34.791Z,73.95
2023-02-24T04:20:18.432Z,74.15
2023-02-24T04:22:57.216Z,78.15
2023-02-24T04:25:37.370Z,71.40
2023-02-24T04:28:19.860Z,75.45
2023-02-24T04:31:10.643Z,67.80
2023-02-24T04:33:42.295Z,55.88
2023-02-24T04:36:42.991Z,53.35
2023-02-24T04:39:15.531Z,55.08
2023-02-24T04:41:51.652Z,52.88
2023-02-24T04:44:29.421Z,55.85
2023-02-24T04:47:14.067Z,63.80
2023-02-24T04:49:51.492Z,60.30
2023-02-24T04:52:25.915Z,59.38
2023-02-24T04:54:53.326Z,59.40
2023-02-24T04:57:32.994Z,60.28
2023-02-24T05:00:02.989Z,62.08
2023-02-24T05:02:33.366Z,59.83
2023-02-24T05:05:10.264Z,56.08
2023-02-24T05:07:39.844Z,59.80
2023-02-24T05:10:20.605Z,58.20
2023-02-24T05:13:01.418Z,62.80
2023-02-24T05:15:48.907Z,54.38
2023-02-24T05:21:27.005Z,58.42
2023-02-24T05:24:11.948Z,47.53
2023-02-24T05:26:42.947Z,56.30
2023-02-24T05:29:22.292Z,39.63
2023-02-24T05:32:00.162Z,51.97
2023-02-24T05:34:35.019Z,48.15
2023-02-24T05:37:11.786Z,43.65
2023-02-24T05:39:38.897Z,40.75
2023-02-24T05:42:07.266Z,39.83
2023-02-24T05:44:43.372Z,47.17
2023-02-24T05:47:54.533Z,44.05
2023-02-24T05:50:35.581Z,46.90
2023-02-24T05:53:11.840Z,38.47
2023-02-24T05:55:52.217Z,40.83
2023-02-24T05:58:26.625Z,44.58
2023-02-24T06:00:53.410Z,43.25
2023-02-24T06:03:31.131Z,51.03
2023-02-24T06:06:09.204Z,51.03
2023-02-24T06:08:57.911Z,50.97
2023-02-24T06:11:32.183Z,40.38
2023-02-24T06:14:01.302Z,47.90
2023-02-24T06:16:39.179Z,52.63
2023-02-24T06:19:24.080Z,51.33
2023-02-24T06:21:54.199Z,56.30
2023-02-24T06:24:22.271Z,55.85
2023-02-24T06:26:50.828Z,51.70
2023-02-24T06:29:41.344Z,53.67
2023-02-24T06:32:13.302Z,58.17
2023-02-24T06:34:41.111Z,55.80
2023-02-24T06:37:17.663Z,42.13
2023-02-24T06:40:04.589Z,51.38
2023-02-24T06:42:31.797Z,54.60
2023-02-24T06:47:43.253Z,54.83
2023-02-24T06:50:27.128Z,52.92
2023-02-24T06:53:03.702Z,54.78
2023-02-24T06:55:48.388Z,38.53
2023-02-24T06:58:28.660Z,45.97
2023-02-24T07:01:12.367Z,39.67
2023-02-24T07:04:11.368Z,38.75
2023-02-24T07:06:50.662Z,37.53
2023-02-24T07:09:20.649Z,36.53
2023-02-24T07:12:01.602Z,38.25
2023-02-24T07:14:37.552Z,41.92
2023-02-24T07:17:09.051Z,35.85
2023-02-24T07:19:45.742Z,35.60
2023-02-24T07:22:31.264Z,55.05
2023-02-24T07:25:39.651Z,42.58
2023-02-24T07:28:26.232Z,41.28
2023-02-24T07:31:04.355Z,42.45
2023-02-24T07:33:34.638Z,32.72
2023-02-24T07:36:15.084Z,44.58
2023-02-24T07:38:47.849Z,48.60
2023-02-24T07:41:22.647Z,47.17
2023-02-24T07:44:02.230Z,32.13
2023-02-24T07:46:45.056Z,54.85
2023-02-24T07:49:28.096Z,40.33
2023-02-24T07:52:00.609Z,41.92
2023-02-24T07:57:06.947Z,71.95
2023-02-24T08:00:48.321Z,58.15
2023-02-24T08:03:14.432Z,48.60
2023-02-24T08:05:43.865Z,29.90
2023-02-24T08:08:31.624Z,53.95
2023-02-24T08:11:43.645Z,53.55
2023-02-24T08:14:14.486Z,56.20
2023-02-24T08:16:49.405Z,60.78
2023-02-24T08:19:25.490Z,35.05
2023-02-24T08:21:53.636Z,34.47
2023-02-24T08:24:33.310Z,39.28
2023-02-24T08:27:22.215Z,43.65
2023-02-24T08:30:00.281Z,33.90
2023-02-24T08:32:59.755Z,31.75
2023-02-24T08:35:45.306Z,36.63
2023-02-24T08:38:42.441Z,31.35
2023-02-24T08:41:56.591Z,29.65
2023-02-24T08:44:39.213Z,34.97
2023-02-24T08:47:15.658Z,51.78
2023-02-24T08:49:42.733Z,38.17
2023-02-24T08:52:10.678Z,35.45
2023-02-24T08:54:56.886Z,42.03
2023-02-24T08:57:30.734Z,41.30
2023-02-24T09:00:07.302Z,47.63
2023-02-24T09:02:54.988Z,32.95
2023-02-24T09:05:26.153Z,43.53
2023-02-24T09:08:05.347Z,42.35
2023-02-24T09:10:43.600Z,37.33
2023-02-24T09:13:12.697Z,54.42
2023-02-24T09:15:41.995Z,43.95
2023-02-24T09:18:09.868Z,42.30
2023-02-24T09:21:20.541Z,54.83
2023-02-24T09:23:52.868Z,52.03
2023-02-24T09:26:23.850Z,53.55
2023-02-24T09:28:56.592Z,57.90
2023-02-24T09:31:41.082Z,52.35
2023-02-24T09:34:19.500Z,52.10
2023-02-24T09:37:12.692Z,45.38
2023-02-24T09:39:58.984Z,49.05
2023-02-24T09:45:38.186Z,44.13
2023-02-24T09:48:59.635Z,45.90
2023-02-24T09:51:30.618Z,44.20
2023-02-24T09:54:13.709Z,42.53
2023-02-24T09:57:08.502Z,54.60
2023-02-24T10:00:04.294Z,39.28
2023-02-24T10:03:04.015Z,36.60
2023-02-24T10:05:49.450Z,50.88
2023-02-24T10:08:29.246Z,48.15
2023-02-24T10:11:07.300Z,41.20
2023-02-24T10:13:51.937Z,47.83
2023-02-24T10:16:44.976Z,38.92
2023-02-24T10:19:34.367Z,38.85
2023-02-24T10:22:23.243Z,46.15
2023-02-24T10:25:01.619Z,43.42
2023-02-24T10:27:56.178Z,34.83
2023-02-24T10:31:25.588Z,50.75
2023-02-24T10:34:45.673Z,40.08
2023-02-24T10:37:30.968Z,31.02
2023-02-24T10:40:38.813Z,38.40
2023-02-24T10:43:51.560Z,34.03
2023-02-24T10:46:45.001Z,43.25
2023-02-24T10:49:20.456Z,42.90
2023-02-24T10:52:19.281Z,37.45
2023-02-24T10:55:08.770Z,34.03
2023-02-24T10:57:59.145Z,34.17
2023-02-24T11:00:53.991Z,37.92
2023-02-24T11:03:46.347Z,39.45
2023-02-24T11:06:42.528Z,47.95
2023-02-24T11:09:40.216Z,49.55
2023-02-24T11:12:47.297Z,55.05
2023-02-24T11:15:50.995Z,45.05
2023-02-24T11:18:31.452Z,41.83
2023-02-24T11:21:06.579Z,36.90
2023-02-24T11:23:59.936Z,39.70
2023-02-24T11:26:48.836Z,38.40
2023-02-24T11:29:25.679Z,48.17
2023-02-24T11:32:23.715Z,43.17
2023-02-24T11:35:06.784Z,42.38
2023-02-24T11:37:43.348Z,48.75
2023-02-24T11:40:32.205Z,51.40
2023-02-24T11:43:04.604Z,43.25
2023-02-24T11:48:32.937Z,55.35
2023-02-24T11:51:27.672Z,51.15
2023-02-24T11:54:10.776Z,53.30
2023-02-24T11:57:06.745Z,47.05
2023-02-24T11:59:49.963Z,45.97
2023-02-24T12:02:43.887Z,55.53
2023-02-24T12:05:28.612Z,58.88
2023-02-24T12:08:11.039Z,51.88
2023-02-24T12:10:47.726Z,47.10
2023-02-24T12:14:03.653Z,41.08
2023-02-24T12:16:53.809Z,58.67
2023-02-24T12:19:52.150Z,41.53
2023-02-24T12:22:35.812Z,61.47
2023-02-24T12:25:13.348Z,45.08
2023-02-24T12:28:11.437Z,44.65
2023-02-24T12:31:00.852Z,44.80
2023-02-24T12:34:00.382Z,48.70
2023-02-24T12:37:11.291Z,49.92
2023-02-24T12:39:58.984Z,60.70
2023-02-24T12:42:36.019Z,47.25
2023-02-24T12:45:26.538Z,53.17
2023-02-24T12:48:09.476Z,45.65
2023-02-24T12:51:08.410Z,45.95
2023-02-24T12:54:22.149Z,65.53
2023-02-24T12:56:59.054Z,47.33
2023-02-24T12:59:33.144Z,47.20
2023-02-24T13:02:31.905Z,46.75
2023-02-24T13:08:39.392Z,52.65
2023-02-24T13:11:46.846Z,56.70
2023-02-24T13:14:42.093Z,50.35
2023-02-24T13:17:11.901Z,47.65
2023-02-24T13:19:58.486Z,46.80
2023-02-24T13:22:33.908Z,47.65
2023-02-24T13:25:30.198Z,62.13
2023-02-24T13:28:02.666Z,54.63
2023-02-24T13:33:56.106Z,47.53
2023-02-24T13:36:55.596Z,61.35
2023-02-24T13:39:55.100Z,48.30
2023-02-24T13:42:39.711Z,43.05
2023-02-24T13:45:16.279Z,54.88
2023-02-24T13:48:14.646Z,55.38
2023-02-24T13:51:12.084Z,47.20
2023-02-24T13:54:15.460Z,51.97
2023-02-24T13:57:25.279Z,47.67
2023-02-24T14:00:18.457Z,46.30
2023-02-24T14:05:52.718Z,48.75
2023-02-24T14:08:40.633Z,43.33
2023-02-24T14:11:12.974Z,49.50
2023-02-24T14:13:50.703Z,45.00
2023-02-24T14:16:33.579Z,40.70
2023-02-24T14:19:06.778Z,44.40
2023-02-24T14:21:37.476Z,46.35
2023-02-24T14:24:18.217Z,42.10
2023-02-24T14:27:02.927Z,45.45
2023-02-24T14:29:47.581Z,46.15
2023-02-24T14:32:27.697Z,42.83
2023-02-24T14:35:02.044Z,44.08
2023-02-24T14:37:36.206Z,44.70
2023-02-24T14:40:18.182Z,47.05
2023-02-24T14:42:54.687Z,50.53
2023-02-24T14:45:40.002Z,40.53
2023-02-24T14:48:07.832Z,42.83
2023-02-24T14:50:40.843Z,40.45
2023-02-24T14:53:16.771Z,50.88
2023-02-24T14:55:52.705Z,37.03
2023-02-24T14:59:11.298Z,39.60
2023-02-24T15:01:42.269Z,42.25
2023-02-24T15:04:47.468Z,41.58
2023-02-24T15:07:38.120Z,36.58
2023-02-24T15:10:22.166Z,38.53
2023-02-24T15:13:01.038Z,43.72
2023-02-24T15:15:50.402Z,43.97
2023-02-24T15:18:29.607Z,43.30
2023-02-24T15:21:07.746Z,37.83
2023-02-24T15:26:32.585Z,38.90
2023-02-24T15:29:08.133Z,35.40
2023-02-24T15:34:33.225Z,35.95
2023-02-24T15:37:26.048Z,35.53
2023-02-24T15:40:29.653Z,38.33
2023-02-24T15:43:14.155Z,35.85
2023-02-24T15:45:41.649Z,33.03
2023-02-24T15:48:31.083Z,33.55
2023-02-24T15:51:08.813Z,41.90
2023-02-24T15:53:40.642Z,46.00
2023-02-24T15:56:13.906Z,35.88
2023-02-24T15:58:45.361Z,39.13
2023-02-24T16:01:29.954Z,37.93
2023-02-24T16:04:18.243Z,36.65
2023-02-24T16:06:55.341Z,36.10
2023-02-24T16:09:40.504Z,35.90
2023-02-24T16:12:22.015Z,39.17
2023-02-24T16:14:57.838Z,32.03
2023-02-24T16:21:01.133Z,38.40
2023-02-24T16:23:28.001Z,34.75
2023-02-24T16:26:20.971Z,44.00
2023-02-24T16:28:57.712Z,29.55
2023-02-24T16:31:28.920Z,36.70
2023-02-24T16:33:58.649Z,25.25
2023-02-24T16:36:29.142Z,19.70
2023-02-24T16:39:01.922Z,23.90
2023-02-24T16:41:53.408Z,27.02
2023-02-24T16:44:24.790Z,22.92
2023-02-24T16:47:17.860Z,19.55
2023-02-24T16:49:45.130Z,21.17
2023-02-24T16:52:13.335Z,18.05
2023-02-24T16:54:40.100Z,22.90
2023-02-24T16:57:28.727Z,22.20
2023-02-24T17:02:59.096Z,23.77
2023-02-24T17:05:37.757Z,16.23
2023-02-24T17:08:08.606Z,17.17
2023-02-24T17:10:56.579Z,26.52
2023-02-24T17:13:32.439Z,21.40
2023-02-24T17:16:04.765Z,16.10
2023-02-24T17:18:31.586Z,19.50
2023-02-24T17:21:20.686Z,10.35
2023-02-24T17:23:53.529Z,17.08
2023-02-24T17:26:21.880Z,16.17
2023-02-24T17:28:58.660Z,19.33
2023-02-24T17:31:33.738Z,20.35
2023-02-24T17:34:06.469Z,13.52
2023-02-24T17:36:38.281Z,22.38
2023-02-24T17:39:08.826Z,15.32
2023-02-24T17:41:45.228Z,17.02
2023-02-24T17:44:21.283Z,19.48
2023-02-24T17:46:52.669Z,13.30
2023-02-24T17:49:58.473Z,18.20
2023-02-24T17:52:25.677Z,19.02
2023-02-24T17:54:55.020Z,21.20
2023-02-24T17:57:23.677Z,13.63
2023-02-24T18:00:07.608Z,15.25
2023-02-24T18:02:42.081Z,15.00
2023-02-24T18:05:23.834Z,18.98
2023-02-24T18:08:00.138Z,15.30
2023-02-24T18:10:30.676Z,16.90
2023-02-24T18:13:09.018Z,18.97
2023-02-24T18:15:57.743Z,22.77
2023-02-24T18:18:34.234Z,15.65
2023-02-24T18:21:09.687Z,15.30
2023-02-24T18:23:57.258Z,19.13
2023-02-24T18:26:59.650Z,15.65
2023-02-24T18:32:27.677Z,18.98
2023-02-24T18:35:02.289Z,13.63
2023-02-24T18:40:36.807Z,22.90
2023-02-24T18:43:16.746Z,17.25
2023-02-24T18:45:43.963Z,18.75
2023-02-24T18:48:13.654Z,21.17
2023-02-24T18:50:46.750Z,16.40
2023-02-24T18:53:16.688Z,17.23
2023-02-24T18:55:44.702Z,21.85
2023-02-24T18:58:43.533Z,18.23
2023-02-24T19:01:25.566Z,14.52
2023-02-24T19:04:05.129Z,13.70
2023-02-24T19:06:40.737Z,17.92
2023-02-24T19:09:19.796Z,13.18
2023-02-24T19:11:54.233Z,20.33
2023-02-24T19:14:21.128Z,13.68
2023-02-24T19:16:48.998Z,17.15
2023-02-24T19:19:29.750Z,13.77
2023-02-24T19:22:04.762Z,18.13
2023-02-24T19:24:52.169Z,22.73
2023-02-24T19:27:32.606Z,17.60
2023-02-24T19:30:08.961Z,17.85
2023-02-24T19:32:44.049Z,16.42
2023-02-24T19:35:15.824Z,21.90
2023-02-24T19:37:53.729Z,22.27
2023-02-24T19:40:34.805Z,16.45
2023-02-24T19:43:12.696Z,18.65
2023-02-24T19:45:50.993Z,19.90
2023-02-24T19:48:23.931Z,20.75
2023-02-24T19:51:05.703Z,19.88
2023-02-24T19:53:35.431Z,15.27
2023-02-24T19:56:03.978Z,16.52
2023-02-24T19:58:39.214Z,19.10
2023-02-24T20:01:16.824Z,20.27
2023-02-24T20:03:53.709Z,17.98
2023-02-24T20:06:31.662Z,20.88
2023-02-24T20:09:04.747Z,17.48
2023-02-24T20:11:45.905Z,25.00
2023-02-24T20:14:15.299Z,21.58
2023-02-24T20:16:46.035Z,21.48
2023-02-24T20:19:32.437Z,21.20
2023-02-24T20:22:27.996Z,13.38
2023-02-24T20:25:00.555Z,24.33
2023-02-24T20:30:26.358Z,19.33
2023-02-24T20:32:56.677Z,18.83
2023-02-24T20:35:26.881Z,22.05
2023-02-24T20:37:57.711Z,19.05
2023-02-24T20:40:26.880Z,19.50
2023-02-24T20:43:26.268Z,13.55
2023-02-24T20:45:56.371Z,24.80
2023-02-24T20:48:32.944Z,14.32
2023-02-24T20:51:21.810Z,13.35
2023-02-24T20:57:20.576Z,17.45
2023-02-24T21:00:02.997Z,19.10
2023-02-24T21:02:39.461Z,19.52
2023-02-24T21:05:58.866Z,17.98
2023-02-24T21:11:05.275Z,20.25
2023-02-24T21:13:31.992Z,13.05
2023-02-24T21:15:58.687Z,22.50
2023-02-24T21:18:25.505Z,23.83
2023-02-24T21:20:54.138Z,20.13
2023-02-24T21:26:13.190Z,23.10
2023-02-24T21:28:47.154Z,14.20
2023-02-24T21:31:24.377Z,20.98
2023-02-24T21:33:52.387Z,23.65
2023-02-24T21:36:26.439Z,17.40
2023-02-24T21:39:00.740Z,19.67
2023-02-24T21:41:27.712Z,18.45
2023-02-24T21:44:18.368Z,16.45
2023-02-24T21:47:13.365Z,16.10
2023-02-24T21:49:49.888Z,26.38
2023-02-24T21:55:01.317Z,13.60
2023-02-24T21:57:28.536Z,23.75
2023-02-24T22:00:20.907Z,24.13
2023-02-24T22:02:54.695Z,18.55
2023-02-24T22:05:39.715Z,14.85
2023-02-24T22:08:26.747Z,16.25
2023-02-24T22:11:06.846Z,15.88
2023-02-24T22:13:33.642Z,19.35
2023-02-24T22:16:21.586Z,13.63
2023-02-24T22:19:29.712Z,23.40
2023-02-24T22:22:21.266Z,24.98
2023-02-24T22:25:08.066Z,28.88
2023-02-24T22:28:04.945Z,13.70
2023-02-24T22:30:44.043Z,17.20
2023-02-24T22:33:18.961Z,18.35
2023-02-24T22:35:55.172Z,14.07
2023-02-24T22:38:39.442Z,24.02
2023-02-24T22:41:29.694Z,22.10
2023-02-24T22:44:10.955Z,21.55
2023-02-24T22:46:47.089Z,24.45
2023-02-24T22:49:37.971Z,31.58
2023-02-24T22:52:24.774Z,30.40
2023-02-24T22:55:03.395Z,15.35
2023-02-24T22:57:45.289Z,25.67
2023-02-24T23:00:38.292Z,20.55
2023-02-24T23:06:17.913Z,26.75
2023-02-24T23:09:00.504Z,26.35
2023-02-24T23:14:10.322Z,22.52
2023-02-24T23:16:59.849Z,17.48
2023-02-24T23:19:38.808Z,14.30
2023-02-24T23:22:23.213Z,25.75
2023-02-24T23:25:05.843Z,26.45
2023-02-24T23:28:01.763Z,22.40
2023-02-24T23:31:05.165Z,18.00
2023-02-24T23:33:39.790Z,19.10
2023-02-24T23:36:20.854Z,19.30
2023-02-24T23:39:12.103Z,26.38
2023-02-24T23:42:23.056Z,13.98
2023-02-24T23:45:08.705Z,24.93
2023-02-24T23:50:57.951Z,25.40
2023-02-24T23:53:59.656Z,16.70
2023-02-24T23:56:40.705Z,24.55
2023-02-24T23:59:08.005Z,23.88
